Canefield Airport

Fair
28oC (82oF)

Fair


Winds: North westerly @ 03kts / 06km/h

Humidity: 70%

Barometric Pressure: 1012 mb

Accumulated Rainfall for January: 209.8 mm

Updated: 16:00 local time (20:00 UTC)

Douglas-Charles Airport

Fair
22oC (72oF)

Fair


Winds: Westerly @ 04kts / 07km/h

Humidity: 97%

Barometric Pressure: 1015 mb

Accumulated Rainfall for January: 194.2 mm

Updated: 20:00 local time (00:00 UTC)

Satellite Imagery

Satellite Imagery
Click image for larger view. (Source: National Hurricane Center).

Aviation Routine Report (METAR)

Douglas-Charles: METAR TDPD 260000Z 28004KT 9999 FEW018 22/22 Q1015=
Canefield: METAR TDCF 252000Z 32003KT 9999 FEW018 28/22 Q1012=